Time;durP1;ratioP1;P1;durP2;ratioP2;P2;SDS_P1;SDS_P2;PMS_P1;PMS_P2;Temp;Humidity;BMP_temperature;BMP_pressure;BME280_temperature;BME280_humidity;BME280_pressure;Samples;Min_cycle;Max_cycle;Signal;HPM_P1;HPM_P2
2023/04/18 00:00:15;;;;;;;;;;;8.73;37.94;;;;;;2682517;76;20214;-95
2023/04/18 00:03:44;;;;;;;;;;;8.67;37.39;;;;;;2679871;76;20439;-94
2023/04/18 00:07:12;;;;;;;;;;;8.60;36.58;;;;;;2677147;76;21046;-95
2023/04/18 00:10:55;;;;;;;;;;;8.48;35.37;;;;;;2675301;76;20735;-95
2023/04/18 00:14:23;;;;;;;;;;;8.36;34.09;;;;;;2676269;76;20323;-95
2023/04/18 00:17:55;;;;;;;;;;;8.29;33.09;;;;;;2678732;76;20362;-95
2023/04/18 00:21:27;;;;;;;;;;;8.21;32.39;;;;;;2678834;76;20511;-95
2023/04/18 00:25:02;;;;;;;;;;;8.13;31.38;;;;;;2679249;76;20373;-94
2023/04/18 00:28:30;;;;;;;;;;;8.05;31.00;;;;;;2676871;76;20465;-95
2023/04/18 00:32:00;;;;;;;;;;;8.03;30.85;;;;;;2678421;76;20417;-94
2023/04/18 00:35:36;;;;;;;;;;;8.03;30.96;;;;;;2678732;76;20302;-94
2023/04/18 00:38:59;;;;;;;;;;;8.02;31.45;;;;;;2677099;76;20763;-94
2023/04/18 00:42:28;;;;;;;;;;;8.04;31.48;;;;;;2676737;76;20813;-94
2023/04/18 00:46:01;;;;;;;;;;;8.06;31.86;;;;;;2676852;76;20796;-94
2023/04/18 00:49:29;;;;;;;;;;;8.08;32.14;;;;;;2676046;76;20330;-94
2023/04/18 00:53:04;;;;;;;;;;;8.09;31.92;;;;;;2674654;76;20461;-95
2023/04/18 00:56:33;;;;;;;;;;;8.06;31.51;;;;;;2673690;76;20610;-94
2023/04/18 01:00:03;;;;;;;;;;;8.00;31.35;;;;;;2673012;76;20528;-95
2023/04/18 01:03:33;;;;;;;;;;;7.99;31.39;;;;;;2672235;76;20456;-95
2023/04/18 01:07:02;;;;;;;;;;;7.94;31.75;;;;;;2674034;76;20972;-94
2023/04/18 01:10:32;;;;;;;;;;;7.93;31.68;;;;;;2671642;76;21794;-95
2023/04/18 01:14:00;;;;;;;;;;;7.98;32.02;;;;;;2675357;76;20300;-95
2023/04/18 01:17:28;;;;;;;;;;;7.96;31.99;;;;;;2674399;76;20437;-93
2023/04/18 01:21:00;;;;;;;;;;;8.06;32.83;;;;;;2674482;76;20917;-94
2023/04/18 01:24:30;;;;;;;;;;;8.07;32.88;;;;;;2674404;76;20460;-94
2023/04/18 01:27:58;;;;;;;;;;;8.03;32.39;;;;;;2674177;76;20412;-94
2023/04/18 01:31:32;;;;;;;;;;;8.06;33.02;;;;;;2674709;76;20751;-94
2023/04/18 01:34:59;;;;;;;;;;;8.03;33.64;;;;;;2674673;76;20358;-95
2023/04/18 01:38:29;;;;;;;;;;;8.00;34.05;;;;;;2673632;76;20431;-94
2023/04/18 01:42:00;;;;;;;;;;;7.96;33.77;;;;;;2674577;76;20312;-95
2023/04/18 01:45:33;;;;;;;;;;;7.88;32.54;;;;;;2673861;76;20403;-95
2023/04/18 01:48:58;;;;;;;;;;;7.79;32.14;;;;;;2675120;76;20415;-94
2023/04/18 01:52:26;;;;;;;;;;;7.75;32.30;;;;;;2674936;76;20306;-95
2023/04/18 01:55:57;;;;;;;;;;;7.69;32.19;;;;;;2681477;76;20427;-95
2023/04/18 01:59:34;;;;;;;;;;;7.63;31.48;;;;;;2681326;76;20436;-96
2023/04/18 02:03:15;;;;;;;;;;;7.57;31.23;;;;;;2682044;76;20412;-96
2023/04/18 02:10:27;;;;;;;;;;;7.49;30.75;;;;;;2681960;76;20437;-96
2023/04/18 02:14:01;;;;;;;;;;;7.57;31.32;;;;;;2681327;76;20752;-95
2023/04/18 02:17:45;;;;;;;;;;;7.60;32.83;;;;;;2683207;76;20498;-96
2023/04/18 02:24:55;;;;;;;;;;;7.69;34.66;;;;;;2682279;76;20264;-95
2023/04/18 02:28:39;;;;;;;;;;;7.75;35.29;;;;;;2682326;76;20408;-96
2023/04/18 02:32:08;;;;;;;;;;;7.81;35.57;;;;;;2683305;76;20644;-96
2023/04/18 02:35:36;;;;;;;;;;;7.86;35.66;;;;;;2683121;76;20451;-96
2023/04/18 02:39:07;;;;;;;;;;;7.85;35.94;;;;;;2682568;76;20414;-96
2023/04/18 02:42:40;;;;;;;;;;;7.86;36.30;;;;;;2681728;76;20236;-95
2023/04/18 02:49:51;;;;;;;;;;;7.85;36.66;;;;;;2680911;76;21526;-95
2023/04/18 02:53:56;;;;;;;;;;;;;;;;;;;;;
2023/04/18 02:56:58;;;;;;;;;;;7.86;36.72;;;;;;2683591;76;20383;-95
2023/04/18 03:04:33;;;;;;;;;;;7.84;37.21;;;;;;2683126;76;20400;-95
2023/04/18 03:08:07;;;;;;;;;;;7.81;37.27;;;;;;2681643;76;20462;-96
2023/04/18 03:11:35;;;;;;;;;;;7.73;36.79;;;;;;2680048;76;20923;-95
2023/04/18 03:15:06;;;;;;;;;;;7.67;35.79;;;;;;2680595;76;20444;-96
2023/04/18 03:18:36;;;;;;;;;;;7.59;34.95;;;;;;2681341;76;20305;-95
2023/04/18 03:22:09;;;;;;;;;;;7.55;34.89;;;;;;2680347;76;20507;-96
2023/04/18 03:25:44;;;;;;;;;;;7.48;33.87;;;;;;2679870;76;20482;-96
2023/04/18 03:29:25;;;;;;;;;;;7.40;32.77;;;;;;2678703;76;20298;-95
2023/04/18 03:33:15;;;;;;;;;;;7.31;32.36;;;;;;2677842;76;20350;-95
2023/04/18 03:36:40;;;;;;;;;;;7.23;31.51;;;;;;2679293;76;20322;-96
2023/04/18 03:40:17;;;;;;;;;;;7.20;31.83;;;;;;2677189;76;20666;-95
2023/04/18 03:43:46;;;;;;;;;;;7.25;32.83;;;;;;2679464;76;20323;-94
2023/04/18 03:47:14;;;;;;;;;;;7.33;33.63;;;;;;2678958;76;20407;-95
2023/04/18 03:50:47;;;;;;;;;;;7.37;34.30;;;;;;2679452;76;20462;-95
2023/04/18 03:54:30;;;;;;;;;;;;;;;;;;;;;
2023/04/18 03:57:50;;;;;;;;;;;7.35;34.45;;;;;;2682605;76;20500;-95
2023/04/18 04:01:28;;;;;;;;;;;;;;;;;;;;;
2023/04/18 04:04:56;;;;;;;;;;;7.23;33.80;;;;;;2683617;76;20306;-95
2023/04/18 04:08:21;;;;;;;;;;;7.19;33.58;;;;;;2683214;76;20234;-95
2023/04/18 04:11:50;;;;;;;;;;;7.16;33.47;;;;;;2682125;76;20476;-95
2023/04/18 04:15:23;;;;;;;;;;;7.08;33.54;;;;;;2682893;76;20484;-94
2023/04/18 04:18:51;;;;;;;;;;;7.05;33.47;;;;;;2678856;76;20296;-94
2023/04/18 04:22:27;;;;;;;;;;;7.02;33.06;;;;;;2676661;76;20831;-95
2023/04/18 04:25:57;;;;;;;;;;;7.03;32.42;;;;;;2676035;76;20431;-94
2023/04/18 04:29:27;;;;;;;;;;;7.02;32.35;;;;;;2677620;76;20433;-95
2023/04/18 04:32:58;;;;;;;;;;;7.09;32.44;;;;;;2680765;76;20451;-95
2023/04/18 04:36:32;;;;;;;;;;;7.15;32.54;;;;;;2680459;76;20364;-95
2023/04/18 04:40:00;;;;;;;;;;;7.13;32.05;;;;;;2679494;76;20427;-96
2023/04/18 04:43:31;;;;;;;;;;;7.17;31.72;;;;;;2682651;76;20358;-95
2023/04/18 04:46:59;;;;;;;;;;;7.14;31.36;;;;;;2676390;76;20433;-95
2023/04/18 04:50:27;;;;;;;;;;;7.14;30.78;;;;;;2676728;76;20348;-95
2023/04/18 04:53:55;;;;;;;;;;;7.20;30.38;;;;;;2675478;76;20468;-95
2023/04/18 04:57:23;;;;;;;;;;;7.25;30.17;;;;;;2673545;76;20433;-94
2023/04/18 05:00:52;;;;;;;;;;;7.38;30.46;;;;;;2676246;76;20452;-94
2023/04/18 05:04:23;;;;;;;;;;;7.46;30.78;;;;;;2675593;76;20420;-95
2023/04/18 05:07:55;;;;;;;;;;;7.61;31.16;;;;;;2670989;76;20427;-94
2023/04/18 05:11:24;;;;;;;;;;;7.73;31.41;;;;;;2669367;76;20954;-94
2023/04/18 05:14:52;;;;;;;;;;;7.87;31.49;;;;;;2669497;76;20356;-94
2023/04/18 05:18:20;;;;;;;;;;;7.89;31.28;;;;;;2670002;76;20479;-94
2023/04/18 05:21:48;;;;;;;;;;;8.00;31.52;;;;;;2668407;76;20316;-96
2023/04/18 05:25:18;;;;;;;;;;;8.11;31.45;;;;;;2671122;76;20451;-94
2023/04/18 05:28:46;;;;;;;;;;;8.19;31.14;;;;;;2669510;76;20329;-91
2023/04/18 05:32:15;;;;;;;;;;;8.24;31.19;;;;;;2665968;76;20894;-92
2023/04/18 05:35:43;;;;;;;;;;;8.37;31.09;;;;;;2667349;76;20970;-92
2023/04/18 05:39:11;;;;;;;;;;;8.62;30.61;;;;;;2666619;76;20463;-92
2023/04/18 05:42:39;;;;;;;;;;;8.83;30.20;;;;;;2666006;76;20811;-92
2023/04/18 05:46:08;;;;;;;;;;;8.65;30.21;;;;;;2665666;76;20422;-92
2023/04/18 05:49:36;;;;;;;;;;;8.57;30.51;;;;;;2664898;76;20684;-92
2023/04/18 05:53:04;;;;;;;;;;;8.51;30.81;;;;;;2665590;76;20444;-91
2023/04/18 05:56:32;;;;;;;;;;;8.49;30.87;;;;;;2666579;76;21976;-91
2023/04/18 06:00:00;;;;;;;;;;;8.49;31.11;;;;;;2667306;76;20967;-92
2023/04/18 06:03:28;;;;;;;;;;;8.46;30.99;;;;;;2665058;76;20518;-92
2023/04/18 06:06:56;;;;;;;;;;;8.47;31.04;;;;;;2666700;76;20456;-92
2023/04/18 06:10:24;;;;;;;;;;;8.72;31.05;;;;;;2666568;76;20466;-91
2023/04/18 06:13:54;;;;;;;;;;;9.18;30.58;;;;;;2666431;76;20428;-91
2023/04/18 06:17:23;;;;;;;;;;;9.51;30.54;;;;;;2667394;76;20480;-91
2023/04/18 06:20:51;;;;;;;;;;;9.81;30.16;;;;;;2667175;76;20384;-92
2023/04/18 06:24:19;;;;;;;;;;;9.91;29.58;;;;;;2662989;76;20927;-92
2023/04/18 06:27:48;;;;;;;;;;;9.69;29.25;;;;;;2667737;76;20951;-91
2023/04/18 06:31:24;;;;;;;;;;;9.44;30.12;;;;;;2666862;76;20509;-90
2023/04/18 06:34:46;;;;;;;;;;;9.53;30.71;;;;;;2666726;76;20494;-90
2023/04/18 06:38:14;;;;;;;;;;;9.76;31.35;;;;;;2667696;76;20453;-90
2023/04/18 06:41:43;;;;;;;;;;;9.82;31.10;;;;;;2667354;76;20437;-89
2023/04/18 06:45:11;;;;;;;;;;;9.75;30.45;;;;;;2667891;76;20929;-90
2023/04/18 06:48:39;;;;;;;;;;;10.24;31.50;;;;;;2667393;76;21080;-91
2023/04/18 06:52:07;;;;;;;;;;;10.23;30.51;;;;;;2666568;76;20447;-92
2023/04/18 06:55:35;;;;;;;;;;;9.93;30.38;;;;;;2668167;76;20457;-91
2023/04/18 06:59:03;;;;;;;;;;;10.22;31.44;;;;;;2668137;76;20507;-91
2023/04/18 07:02:31;;;;;;;;;;;10.29;30.86;;;;;;2667210;76;20467;-91
2023/04/18 07:06:00;;;;;;;;;;;10.24;30.10;;;;;;2667241;76;20513;-91
2023/04/18 07:09:28;;;;;;;;;;;10.25;30.24;;;;;;2667219;76;20430;-91
2023/04/18 07:12:56;;;;;;;;;;;10.52;30.51;;;;;;2666939;76;20900;-91
2023/04/18 07:16:24;;;;;;;;;;;10.85;30.35;;;;;;2668445;76;20955;-91
2023/04/18 07:19:52;;;;;;;;;;;11.36;30.32;;;;;;2667863;76;20928;-91
2023/04/18 07:23:20;;;;;;;;;;;11.66;29.57;;;;;;2667988;76;20441;-90
2023/04/18 07:26:48;;;;;;;;;;;11.11;28.02;;;;;;2667585;76;20957;-91
2023/04/18 07:30:17;;;;;;;;;;;10.71;29.56;;;;;;2668523;76;20719;-91
2023/04/18 07:33:45;;;;;;;;;;;10.16;29.49;;;;;;2669173;76;20490;-91
2023/04/18 07:37:14;;;;;;;;;;;10.13;30.75;;;;;;2668455;76;20467;-91
2023/04/18 07:40:42;;;;;;;;;;;10.15;31.26;;;;;;2668259;76;20437;-91
2023/04/18 07:44:10;;;;;;;;;;;10.58;32.27;;;;;;2672064;76;20340;-91
2023/04/18 07:47:38;;;;;;;;;;;11.10;31.45;;;;;;2668605;76;20442;-91
2023/04/18 07:51:06;;;;;;;;;;;11.40;30.16;;;;;;2666972;76;20459;-91
2023/04/18 07:54:39;;;;;;;;;;;11.72;30.38;;;;;;2669106;76;20444;-89
2023/04/18 07:58:04;;;;;;;;;;;11.96;29.48;;;;;;2667951;76;20456;-89
2023/04/18 08:01:32;;;;;;;;;;;11.81;26.65;;;;;;2668124;76;21095;-88
2023/04/18 08:05:00;;;;;;;;;;;12.06;26.65;;;;;;2667736;76;20473;-88
2023/04/18 08:08:28;;;;;;;;;;;12.59;26.10;;;;;;2666254;76;20474;-88
2023/04/18 08:11:57;;;;;;;;;;;13.03;25.69;;;;;;2667510;76;20508;-87
2023/04/18 08:15:31;;;;;;;;;;;13.15;24.12;;;;;;2667030;76;20457;-88
2023/04/18 08:18:58;;;;;;;;;;;13.51;25.07;;;;;;2667687;76;20365;-88
2023/04/18 08:22:26;;;;;;;;;;;13.49;24.59;;;;;;2666965;76;20425;-88
2023/04/18 08:25:55;;;;;;;;;;;13.33;24.33;;;;;;2666938;76;20466;-88
2023/04/18 08:29:23;;;;;;;;;;;13.40;25.28;;;;;;2668424;76;20433;-88
2023/04/18 08:32:51;;;;;;;;;;;13.61;25.09;;;;;;2668020;76;20486;-88
2023/04/18 08:36:23;;;;;;;;;;;13.88;23.27;;;;;;2667419;76;20471;-88
2023/04/18 08:39:51;;;;;;;;;;;13.80;22.87;;;;;;2666493;76;20429;-88
2023/04/18 08:43:19;;;;;;;;;;;13.68;22.12;;;;;;2666692;76;20488;-88
2023/04/18 08:46:53;;;;;;;;;;;13.75;22.41;;;;;;2668548;76;20434;-88
2023/04/18 08:50:18;;;;;;;;;;;13.74;24.35;;;;;;2667444;76;20516;-88
2023/04/18 08:53:47;;;;;;;;;;;13.50;23.05;;;;;;2667533;76;20903;-88
2023/04/18 08:57:25;;;;;;;;;;;13.52;24.44;;;;;;2667343;76;20450;-88
2023/04/18 09:00:48;;;;;;;;;;;13.69;24.62;;;;;;2666955;76;20454;-86
2023/04/18 09:04:17;;;;;;;;;;;14.21;23.88;;;;;;2667686;76;20421;-88
2023/04/18 09:07:45;;;;;;;;;;;14.42;21.92;;;;;;2666768;76;21083;-88
2023/04/18 09:11:13;;;;;;;;;;;14.68;22.33;;;;;;2667211;76;20488;-88
2023/04/18 09:14:44;;;;;;;;;;;14.62;21.29;;;;;;2667749;76;20414;-88
2023/04/18 09:18:11;;;;;;;;;;;14.63;22.33;;;;;;2666744;76;20454;-88
2023/04/18 09:21:40;;;;;;;;;;;14.53;20.92;;;;;;2667592;76;21258;-87
2023/04/18 09:25:08;;;;;;;;;;;14.37;19.43;;;;;;2666602;76;20496;-88
2023/04/18 09:28:37;;;;;;;;;;;14.26;19.65;;;;;;2667515;76;20460;-88
2023/04/18 09:32:05;;;;;;;;;;;14.49;19.83;;;;;;2667617;76;20886;-89
2023/04/18 09:35:34;;;;;;;;;;;14.67;19.38;;;;;;2668447;76;20444;-87
2023/04/18 09:39:03;;;;;;;;;;;14.86;18.67;;;;;;2667441;76;20457;-87
2023/04/18 09:42:31;;;;;;;;;;;15.18;18.87;;;;;;2668824;76;20444;-86
2023/04/18 09:45:59;;;;;;;;;;;15.40;17.75;;;;;;2668056;76;20810;-88
2023/04/18 09:49:28;;;;;;;;;;;15.43;16.83;;;;;;2666874;76;20562;-88
2023/04/18 09:52:56;;;;;;;;;;;15.17;16.44;;;;;;2667996;76;20513;-87
2023/04/18 09:56:24;;;;;;;;;;;15.07;16.12;;;;;;2666765;76;20474;-88
2023/04/18 09:59:56;;;;;;;;;;;15.41;17.89;;;;;;2668455;76;20474;-87
2023/04/18 10:03:23;;;;;;;;;;;15.66;17.16;;;;;;2666876;76;20449;-87
2023/04/18 10:06:51;;;;;;;;;;;15.72;15.84;;;;;;2668321;76;20481;-88
2023/04/18 10:10:19;;;;;;;;;;;15.19;13.68;;;;;;2666846;76;20989;-87
2023/04/18 10:13:47;;;;;;;;;;;15.57;15.93;;;;;;2668456;76;20769;-88
2023/04/18 10:17:15;;;;;;;;;;;16.03;15.69;;;;;;2666315;76;20471;-88
2023/04/18 10:20:43;;;;;;;;;;;16.17;12.68;;;;;;2666370;76;20458;-87
2023/04/18 10:24:11;;;;;;;;;;;16.69;14.45;;;;;;2665330;76;20858;-87
2023/04/18 10:27:40;;;;;;;;;;;16.47;13.57;;;;;;2666750;76;20993;-88
2023/04/18 10:31:08;;;;;;;;;;;16.42;13.28;;;;;;2665271;76;20470;-88
2023/04/18 10:34:36;;;;;;;;;;;16.91;13.14;;;;;;2666962;76;20445;-87
2023/04/18 10:38:04;;;;;;;;;;;16.99;10.91;;;;;;2668208;76;20497;-88
2023/04/18 10:41:32;;;;;;;;;;;17.33;12.26;;;;;;2668866;76;20445;-86
2023/04/18 10:45:00;;;;;;;;;;;17.29;12.84;;;;;;2667927;76;20884;-88
2023/04/18 10:48:29;;;;;;;;;;;16.96;10.98;;;;;;2666516;76;20478;-87
2023/04/18 10:52:00;;;;;;;;;;;16.84;12.14;;;;;;2668509;76;20475;-88
2023/04/18 10:55:28;;;;;;;;;;;16.19;10.37;;;;;;2664839;76;20459;-88
2023/04/18 10:59:00;;;;;;;;;;;16.14;11.88;;;;;;2666194;76;20521;-88
2023/04/18 11:02:28;;;;;;;;;;;16.12;11.84;;;;;;2666379;76;20453;-88
2023/04/18 11:05:57;;;;;;;;;;;15.91;13.35;;;;;;2667145;76;20483;-87
2023/04/18 11:09:25;;;;;;;;;;;15.72;13.43;;;;;;2666333;76;20487;-88
2023/04/18 11:12:53;;;;;;;;;;;15.82;14.61;;;;;;2665205;76;20920;-88
2023/04/18 11:16:23;;;;;;;;;;;16.14;14.35;;;;;;2667543;76;20418;-86
2023/04/18 11:19:53;;;;;;;;;;;16.14;14.35;;;;;;2666997;76;20435;-89
2023/04/18 11:23:23;;;;;;;;;;;16.18;14.48;;;;;;2665907;76;20964;-90
2023/04/18 11:26:54;;;;;;;;;;;15.69;15.48;;;;;;2666183;76;20434;-90
2023/04/18 11:30:21;;;;;;;;;;;14.85;15.61;;;;;;2670426;76;20490;-89
2023/04/18 11:33:49;;;;;;;;;;;14.50;16.90;;;;;;2668360;76;20532;-89
2023/04/18 11:37:18;;;;;;;;;;;14.43;17.42;;;;;;2668605;76;20399;-90
2023/04/18 11:40:46;;;;;;;;;;;14.18;16.95;;;;;;2667743;76;20479;-88
2023/04/18 11:44:14;;;;;;;;;;;14.06;15.80;;;;;;2666374;76;20479;-89
2023/04/18 11:47:45;;;;;;;;;;;14.28;16.62;;;;;;2667548;76;20366;-89
2023/04/18 11:51:13;;;;;;;;;;;15.04;16.78;;;;;;2666461;76;20482;-89
2023/04/18 11:54:42;;;;;;;;;;;15.85;14.97;;;;;;2666260;76;20664;-90
2023/04/18 11:58:10;;;;;;;;;;;16.61;14.00;;;;;;2667348;76;20917;-90
2023/04/18 12:01:38;;;;;;;;;;;16.71;11.19;;;;;;2667386;76;20472;-90
2023/04/18 12:05:07;;;;;;;;;;;16.69;10.14;;;;;;2665881;76;20487;-92
2023/04/18 12:08:35;;;;;;;;;;;16.74;9.82;;;;;;2664962;76;20469;-93
2023/04/18 12:12:04;;;;;;;;;;;16.77;10.14;;;;;;2665918;76;21003;-91
2023/04/18 12:15:32;;;;;;;;;;;16.51;10.10;;;;;;2665191;76;20943;-91
2023/04/18 12:19:00;;;;;;;;;;;15.99;11.85;;;;;;2668225;76;21464;-92
2023/04/18 12:22:32;;;;;;;;;;;15.39;12.23;;;;;;2666120;76;20792;-91
2023/04/18 12:26:02;;;;;;;;;;;14.92;13.91;;;;;;2665272;76;20470;-92
2023/04/18 12:29:39;;;;;;;;;;;14.47;15.43;;;;;;2667608;76;20482;-92
2023/04/18 12:33:03;;;;;;;;;;;14.24;16.62;;;;;;2667973;76;20456;-93
2023/04/18 12:36:31;;;;;;;;;;;13.95;15.17;;;;;;2669195;76;20425;-93
2023/04/18 12:39:59;;;;;;;;;;;14.04;15.58;;;;;;2669554;76;21240;-90
2023/04/18 12:43:33;;;;;;;;;;;14.10;15.68;;;;;;2670123;76;20306;-91
2023/04/18 12:47:02;;;;;;;;;;;14.21;15.65;;;;;;2666999;76;20458;-91
2023/04/18 12:50:33;;;;;;;;;;;14.57;16.13;;;;;;2667032;76;20417;-88
2023/04/18 12:55:02;;;;;;;;;;;;;;;;;;;;;
2023/04/18 12:58:00;;;;;;;;;;;14.60;16.18;;;;;;2664091;76;20463;-90
2023/04/18 13:01:33;;;;;;;;;;;14.88;15.74;;;;;;2663854;76;20957;-91
2023/04/18 13:05:10;;;;;;;;;;;14.93;15.48;;;;;;2666407;76;20471;-88
2023/04/18 13:08:38;;;;;;;;;;;14.72;15.90;;;;;;2667025;76;20891;-89
2023/04/18 13:12:06;;;;;;;;;;;14.27;15.82;;;;;;2668557;76;20434;-88
2023/04/18 13:15:35;;;;;;;;;;;14.10;16.19;;;;;;2667900;76;20441;-89
2023/04/18 13:19:05;;;;;;;;;;;13.83;17.14;;;;;;2669054;76;21203;-89
2023/04/18 13:22:33;;;;;;;;;;;13.85;17.84;;;;;;2668507;76;20332;-92
2023/04/18 13:26:02;;;;;;;;;;;14.19;17.26;;;;;;2668059;76;20518;-89
2023/04/18 13:29:30;;;;;;;;;;;14.48;15.50;;;;;;2668854;76;20463;-88
2023/04/18 13:33:00;;;;;;;;;;;14.88;16.12;;;;;;2670092;76;20448;-88
2023/04/18 13:36:39;;;;;;;;;;;14.88;15.42;;;;;;2670515;76;20295;-88
2023/04/18 13:40:04;;;;;;;;;;;14.66;17.38;;;;;;2669425;76;20454;-91
2023/04/18 13:43:31;;;;;;;;;;;14.14;17.71;;;;;;2670332;76;20455;-92
2023/04/18 13:47:05;;;;;;;;;;;13.63;16.72;;;;;;2669662;76;20509;-92
2023/04/18 13:50:39;;;;;;;;;;;13.31;16.68;;;;;;2668415;76;20913;-88
2023/04/18 13:54:08;;;;;;;;;;;13.07;16.62;;;;;;2668308;76;20474;-91
2023/04/18 13:57:42;;;;;;;;;;;13.09;18.25;;;;;;2667524;76;20441;-93
2023/04/18 14:01:20;;;;;;;;;;;13.00;18.68;;;;;;2669871;76;20538;-92
2023/04/18 14:04:48;;;;;;;;;;;12.84;19.38;;;;;;2668798;76;20489;-89
2023/04/18 14:08:16;;;;;;;;;;;12.72;19.79;;;;;;2666947;76;20477;-91
2023/04/18 14:11:44;;;;;;;;;;;12.73;20.25;;;;;;2667780;76;20639;-90
2023/04/18 14:15:12;;;;;;;;;;;12.71;20.71;;;;;;2667424;76;20899;-90
2023/04/18 14:18:48;;;;;;;;;;;12.85;21.11;;;;;;2667123;76;20485;-89
2023/04/18 14:22:12;;;;;;;;;;;12.91;21.08;;;;;;2669319;76;20447;-90
2023/04/18 14:25:41;;;;;;;;;;;12.93;20.98;;;;;;2670061;76;20502;-89
2023/04/18 14:29:09;;;;;;;;;;;12.78;20.23;;;;;;2669960;76;20902;-90
2023/04/18 14:32:42;;;;;;;;;;;12.65;20.97;;;;;;2668664;76;20462;-90
2023/04/18 14:36:18;;;;;;;;;;;12.49;21.34;;;;;;2670573;76;20437;-90
2023/04/18 14:39:51;;;;;;;;;;;;;;;;;;;;;
2023/04/18 14:43:25;;;;;;;;;;;12.30;22.24;;;;;;2668623;76;20434;-87
2023/04/18 14:47:00;;;;;;;;;;;12.28;22.49;;;;;;2670756;76;20920;-87
2023/04/18 14:50:35;;;;;;;;;;;12.13;22.85;;;;;;2670108;76;20414;-88
2023/04/18 14:54:06;;;;;;;;;;;12.02;23.22;;;;;;2670670;76;20902;-88
2023/04/18 14:57:45;;;;;;;;;;;11.91;23.69;;;;;;2668877;76;20422;-88
2023/04/18 15:01:20;;;;;;;;;;;11.82;23.78;;;;;;2668509;76;20897;-87
2023/04/18 15:04:47;;;;;;;;;;;11.75;24.41;;;;;;2669231;76;20464;-87
2023/04/18 15:08:16;;;;;;;;;;;11.67;24.49;;;;;;2669835;76;20951;-88
2023/04/18 15:11:47;;;;;;;;;;;11.75;24.91;;;;;;2669054;76;20360;-88
2023/04/18 15:15:18;;;;;;;;;;;11.67;24.79;;;;;;2667002;76;20965;-87
2023/04/18 15:18:46;;;;;;;;;;;11.67;25.08;;;;;;2668524;76;20321;-88
2023/04/18 15:22:14;;;;;;;;;;;11.57;24.82;;;;;;2666950;76;20943;-89
2023/04/18 15:25:53;;;;;;;;;;;11.64;25.43;;;;;;2669031;76;20451;-88
2023/04/18 15:29:15;;;;;;;;;;;11.57;25.00;;;;;;2667729;76;20456;-90
2023/04/18 15:32:56;;;;;;;;;;;11.59;25.00;;;;;;2669220;76;21198;-92
2023/04/18 15:40:00;;;;;;;;;;;11.70;24.62;;;;;;2667791;76;20500;-89
2023/04/18 15:43:44;;;;;;;;;;;11.69;24.34;;;;;;2666807;76;20472;-89
2023/04/18 15:47:30;;;;;;;;;;;11.76;24.28;;;;;;2669130;76;20429;-89
2023/04/18 15:51:00;;;;;;;;;;;11.92;24.40;;;;;;2669296;76;20939;-89
2023/04/18 15:54:28;;;;;;;;;;;11.97;24.22;;;;;;2669776;76;20436;-89
2023/04/18 15:57:58;;;;;;;;;;;11.72;24.16;;;;;;2668069;76;20439;-90
2023/04/18 16:01:29;;;;;;;;;;;11.54;24.77;;;;;;2670013;76;20968;-89
2023/04/18 16:04:57;;;;;;;;;;;11.48;25.30;;;;;;2669363;76;20954;-89
2023/04/18 16:08:25;;;;;;;;;;;11.53;25.97;;;;;;2668171;76;20869;-89
2023/04/18 16:11:54;;;;;;;;;;;11.61;26.14;;;;;;2666988;76;20444;-89
2023/04/18 16:15:22;;;;;;;;;;;11.76;26.50;;;;;;2668931;76;20444;-89
2023/04/18 16:18:50;;;;;;;;;;;11.86;26.62;;;;;;2670042;76;20442;-89
2023/04/18 16:22:23;;;;;;;;;;;11.93;26.91;;;;;;2670467;76;20485;-89
2023/04/18 16:25:48;;;;;;;;;;;11.99;27.16;;;;;;2670714;76;20398;-89
2023/04/18 16:29:18;;;;;;;;;;;12.08;27.39;;;;;;2669137;76;20425;-89
2023/04/18 16:32:46;;;;;;;;;;;12.14;27.48;;;;;;2671180;76;20466;-89
2023/04/18 16:36:15;;;;;;;;;;;12.16;27.78;;;;;;2670207;76;20324;-89
2023/04/18 16:39:43;;;;;;;;;;;12.16;27.89;;;;;;2671274;76;20351;-89
2023/04/18 16:43:11;;;;;;;;;;;12.15;28.15;;;;;;2671605;76;20435;-89
2023/04/18 16:46:39;;;;;;;;;;;12.13;28.09;;;;;;2671214;76;20415;-89
2023/04/18 16:50:07;;;;;;;;;;;12.12;28.40;;;;;;2671056;76;20326;-89
2023/04/18 16:53:35;;;;;;;;;;;12.10;28.17;;;;;;2669856;76;20429;-90
2023/04/18 16:57:04;;;;;;;;;;;12.05;28.23;;;;;;2670150;76;20954;-89
2023/04/18 17:00:32;;;;;;;;;;;11.97;28.48;;;;;;2670294;76;20430;-89
2023/04/18 17:04:00;;;;;;;;;;;11.89;28.26;;;;;;2670575;76;20459;-89
2023/04/18 17:07:29;;;;;;;;;;;11.83;28.19;;;;;;2670303;76;20425;-88
2023/04/18 17:10:58;;;;;;;;;;;11.81;28.19;;;;;;2669276;76;20406;-89
2023/04/18 17:14:26;;;;;;;;;;;11.72;28.19;;;;;;2670704;76;20775;-88
2023/04/18 17:17:55;;;;;;;;;;;11.69;28.50;;;;;;2668533;76;21309;-89
2023/04/18 17:21:23;;;;;;;;;;;11.58;28.36;;;;;;2670821;76;20447;-89
2023/04/18 17:24:53;;;;;;;;;;;11.45;28.17;;;;;;2671243;76;21067;-89
2023/04/18 17:28:22;;;;;;;;;;;11.39;28.30;;;;;;2671112;76;20471;-89
2023/04/18 17:31:50;;;;;;;;;;;11.37;28.27;;;;;;2671180;76;20466;-89
2023/04/18 17:35:18;;;;;;;;;;;11.33;28.27;;;;;;2671277;76;21539;-89
2023/04/18 17:38:49;;;;;;;;;;;11.30;28.24;;;;;;2670445;76;20500;-89
2023/04/18 17:42:18;;;;;;;;;;;11.28;28.45;;;;;;2671531;76;20858;-88
2023/04/18 17:45:46;;;;;;;;;;;11.25;28.64;;;;;;2670486;76;20317;-89
2023/04/18 17:49:17;;;;;;;;;;;11.22;28.91;;;;;;2670214;76;20420;-90
2023/04/18 17:52:45;;;;;;;;;;;11.12;28.75;;;;;;2670889;76;20420;-89
2023/04/18 17:56:13;;;;;;;;;;;11.09;29.15;;;;;;2671028;76;20670;-89
2023/04/18 17:59:41;;;;;;;;;;;11.10;29.40;;;;;;2669994;76;20461;-89
2023/04/18 18:03:12;;;;;;;;;;;11.09;29.33;;;;;;2670351;76;20439;-89
2023/04/18 18:06:39;;;;;;;;;;;11.05;29.40;;;;;;2671008;76;20421;-88
2023/04/18 18:10:09;;;;;;;;;;;11.03;29.61;;;;;;2671289;76;20429;-88
2023/04/18 18:13:41;;;;;;;;;;;11.03;29.95;;;;;;2669927;76;20468;-89
2023/04/18 18:17:09;;;;;;;;;;;11.01;30.05;;;;;;2670313;76;20482;-89
2023/04/18 18:20:40;;;;;;;;;;;10.98;30.29;;;;;;2670644;76;20457;-89
2023/04/18 18:24:07;;;;;;;;;;;10.95;30.51;;;;;;2671244;76;20433;-89
2023/04/18 18:27:37;;;;;;;;;;;10.92;30.64;;;;;;2669870;76;20762;-89
2023/04/18 18:31:05;;;;;;;;;;;10.93;31.01;;;;;;2669695;76;20401;-89
2023/04/18 18:34:33;;;;;;;;;;;10.93;31.35;;;;;;2668960;76;20468;-89
2023/04/18 18:38:06;;;;;;;;;;;10.94;31.57;;;;;;2669108;76;20900;-89
2023/04/18 18:41:34;;;;;;;;;;;10.94;31.65;;;;;;2669770;76;21768;-90
2023/04/18 18:45:02;;;;;;;;;;;10.97;31.84;;;;;;2669413;76;20431;-89
2023/04/18 18:48:31;;;;;;;;;;;10.98;31.93;;;;;;2669414;76;20418;-89
2023/04/18 18:52:02;;;;;;;;;;;10.92;31.52;;;;;;2668833;76;20437;-90
2023/04/18 18:55:29;;;;;;;;;;;10.83;31.82;;;;;;2670387;76;20430;-90
2023/04/18 18:58:57;;;;;;;;;;;10.74;31.77;;;;;;2669781;76;20421;-90
2023/04/18 19:02:25;;;;;;;;;;;10.71;31.89;;;;;;2669084;76;20613;-89
2023/04/18 19:05:55;;;;;;;;;;;10.63;31.88;;;;;;2669879;76;20432;-90
2023/04/18 19:09:23;;;;;;;;;;;10.67;32.19;;;;;;2670030;76;20910;-90
2023/04/18 19:12:53;;;;;;;;;;;10.66;32.06;;;;;;2668916;76;20488;-90
2023/04/18 19:16:21;;;;;;;;;;;10.63;31.99;;;;;;2667880;76;20949;-90
2023/04/18 19:19:52;;;;;;;;;;;10.58;31.99;;;;;;2668872;76;20472;-90
2023/04/18 19:23:19;;;;;;;;;;;10.53;31.80;;;;;;2668630;76;20462;-89
2023/04/18 19:26:47;;;;;;;;;;;10.48;32.12;;;;;;2666864;76;20465;-90
2023/04/18 19:30:16;;;;;;;;;;;10.45;32.35;;;;;;2667893;76;20511;-91
2023/04/18 19:33:44;;;;;;;;;;;10.40;32.38;;;;;;2669156;76;20427;-91
2023/04/18 19:37:12;;;;;;;;;;;10.39;32.53;;;;;;2670069;76;20482;-91
2023/04/18 19:40:40;;;;;;;;;;;10.39;32.66;;;;;;2670357;76;20474;-91
2023/04/18 19:44:08;;;;;;;;;;;10.30;31.86;;;;;;2668485;76;20464;-91
2023/04/18 19:47:37;;;;;;;;;;;10.30;32.65;;;;;;2668496;76;20460;-89
2023/04/18 19:51:05;;;;;;;;;;;10.27;32.48;;;;;;2669841;76;20399;-90
2023/04/18 19:54:33;;;;;;;;;;;10.28;32.79;;;;;;2668615;76;20986;-90
2023/04/18 19:58:02;;;;;;;;;;;10.31;32.44;;;;;;2668897;76;20481;-90
2023/04/18 20:01:32;;;;;;;;;;;10.34;32.76;;;;;;2669918;76;20435;-89
2023/04/18 20:05:00;;;;;;;;;;;10.27;32.53;;;;;;2666550;76;20465;-89
2023/04/18 20:08:28;;;;;;;;;;;10.15;32.13;;;;;;2669694;76;20523;-89
2023/04/18 20:11:59;;;;;;;;;;;10.10;32.30;;;;;;2670258;76;20463;-89
2023/04/18 20:15:27;;;;;;;;;;;10.05;32.60;;;;;;2670972;76;20418;-90
2023/04/18 20:18:55;;;;;;;;;;;10.08;32.91;;;;;;2668678;76;20511;-90
2023/04/18 20:22:26;;;;;;;;;;;10.08;32.65;;;;;;2669369;76;20443;-89
2023/04/18 20:25:54;;;;;;;;;;;10.05;32.54;;;;;;2671677;76;20346;-89
2023/04/18 20:29:22;;;;;;;;;;;10.03;32.89;;;;;;2671638;76;20424;-89
2023/04/18 20:32:50;;;;;;;;;;;10.07;33.27;;;;;;2670172;76;20324;-90
2023/04/18 20:36:19;;;;;;;;;;;10.05;33.51;;;;;;2670988;76;20842;-89
2023/04/18 20:39:47;;;;;;;;;;;10.13;33.81;;;;;;2669999;76;20429;-89
2023/04/18 20:43:20;;;;;;;;;;;10.16;34.02;;;;;;2669663;76;21013;-89
2023/04/18 20:46:45;;;;;;;;;;;10.16;33.79;;;;;;2670040;76;20355;-89
2023/04/18 20:50:14;;;;;;;;;;;10.20;33.75;;;;;;2670811;76;20421;-89